createdAt,value
2023-01-12T00:01:15.368Z,80.54
2023-01-12T00:05:36.211Z,80.66
2023-01-12T00:10:15.181Z,81.38
2023-01-12T00:15:12.653Z,82.34
2023-01-12T00:19:33.537Z,82.70
2023-01-12T00:24:21.173Z,82.14
2023-01-12T00:36:35.081Z,81.94
2023-01-12T00:40:44.353Z,82.16
2023-01-12T01:07:05.597Z,84.08
2023-01-12T01:15:20.108Z,83.86
2023-01-12T01:19:31.436Z,84.16
2023-01-12T01:23:38.192Z,84.05
2023-01-12T01:28:05.712Z,83.45
2023-01-12T01:32:51.621Z,82.94
2023-01-12T01:37:19.797Z,82.77
2023-01-12T01:41:49.678Z,82.89
2023-01-12T01:54:56.089Z,83.07
2023-01-12T01:59:51.156Z,83.18
2023-01-12T02:04:17.780Z,83.16
2023-01-12T02:08:59.105Z,83.18
2023-01-12T02:13:26.121Z,83.12
2023-01-12T02:22:26.786Z,83.18
2023-01-12T02:31:35.716Z,83.02
2023-01-12T02:40:29.723Z,83.06
2023-01-12T02:44:45.096Z,83.07
2023-01-12T02:53:32.825Z,83.14
2023-01-12T02:58:23.827Z,83.33
2023-01-12T03:11:25.139Z,83.66
2023-01-12T03:15:59.615Z,83.84
2023-01-12T03:20:22.913Z,84.10
2023-01-12T03:24:26.162Z,84.19
2023-01-12T03:28:50.788Z,84.31
2023-01-12T03:33:09.561Z,84.49
2023-01-12T03:50:42.724Z,85.07
2023-01-12T03:55:12.330Z,85.20
2023-01-12T03:59:21.442Z,85.45
2023-01-12T04:03:58.259Z,85.16
2023-01-12T04:08:26.566Z,85.24
2023-01-12T04:12:54.804Z,85.38
2023-01-12T04:17:10.419Z,85.56
2023-01-12T04:21:29.572Z,85.42
2023-01-12T04:25:54.841Z,85.38
2023-01-12T04:34:27.129Z,85.69
2023-01-12T04:38:38.454Z,85.78
2023-01-12T04:43:13.791Z,85.78
2023-01-12T04:47:18.170Z,85.79
2023-01-12T04:51:51.531Z,85.98
2023-01-12T04:56:11.569Z,86.13
2023-01-12T05:00:36.836Z,86.01
2023-01-12T05:04:42.186Z,86.14
2023-01-12T05:09:09.528Z,86.05
2023-01-12T05:17:43.849Z,86.38
2023-01-12T05:22:13.612Z,86.19
2023-01-12T05:26:18.908Z,86.19
2023-01-12T05:35:08.969Z,86.18
2023-01-12T05:39:27.224Z,86.30
2023-01-12T05:43:45.398Z,86.35
2023-01-12T05:48:14.813Z,86.39
2023-01-12T05:52:33.324Z,86.48
2023-01-12T05:56:52.301Z,86.75
2023-01-12T06:01:06.785Z,86.94
2023-01-12T06:05:13.288Z,86.92
2023-01-12T06:14:02.806Z,87.20
2023-01-12T06:18:25.054Z,86.85
2023-01-12T06:22:55.914Z,86.88
2023-01-12T06:27:30.401Z,87.03
2023-01-12T06:32:00.664Z,87.11
2023-01-12T06:36:32.013Z,87.77
2023-01-12T06:41:01.546Z,88.02
2023-01-12T06:45:32.950Z,88.04
2023-01-12T06:49:53.305Z,87.87
2023-01-12T06:54:23.045Z,87.74
2023-01-12T06:58:30.907Z,87.46
2023-01-12T07:02:41.994Z,87.38
2023-01-12T07:06:58.242Z,87.30
2023-01-12T07:11:13.982Z,87.26
2023-01-12T07:15:09.106Z,87.19
2023-01-12T07:19:35.945Z,87.33
2023-01-12T07:23:58.778Z,87.33
2023-01-12T07:28:07.726Z,87.12
2023-01-12T07:32:02.274Z,86.83
2023-01-12T07:36:16.529Z,86.58
2023-01-12T07:40:03.907Z,86.40
2023-01-12T07:43:22.075Z,86.26
2023-01-12T07:47:46.661Z,86.11
2023-01-12T07:51:49.485Z,85.88
2023-01-12T07:55:28.322Z,85.66
2023-01-12T07:59:09.559Z,85.44
2023-01-12T08:03:52.049Z,85.22
2023-01-12T08:10:54.019Z,84.94
2023-01-12T08:18:04.446Z,84.45
2023-01-12T08:22:01.342Z,84.07
2023-01-12T08:26:12.642Z,83.70
2023-01-12T08:30:25.064Z,83.34
2023-01-12T08:34:33.786Z,83.19
2023-01-12T08:37:58.152Z,82.64
2023-01-12T08:41:52.482Z,82.42
2023-01-12T08:45:58.591Z,81.38
2023-01-12T08:50:08.890Z,80.66
2023-01-12T08:54:19.667Z,79.76
2023-01-12T08:58:25.339Z,78.56
2023-01-12T09:02:10.219Z,77.64
2023-01-12T09:05:38.584Z,77.05
2023-01-12T09:09:17.151Z,75.77
2023-01-12T09:13:03.895Z,75.59
2023-01-12T09:16:13.562Z,75.37
2023-01-12T09:23:44.595Z,74.65
2023-01-12T09:27:29.102Z,75.02
2023-01-12T09:31:09.856Z,75.18
2023-01-12T09:35:17.213Z,75.18
2023-01-12T09:39:44.283Z,74.41
2023-01-12T09:44:04.291Z,73.50
2023-01-12T09:48:23.240Z,72.81
2023-01-12T09:52:35.645Z,73.12
2023-01-12T09:56:57.372Z,73.52
2023-01-12T10:09:54.314Z,73.18
2023-01-12T10:14:16.497Z,73.32
2023-01-12T10:18:30.277Z,73.37
2023-01-12T10:22:56.529Z,72.95
2023-01-12T10:30:56.619Z,71.38
2023-01-12T10:35:27.279Z,71.65
2023-01-12T10:39:26.425Z,71.45
2023-01-12T10:43:49.404Z,70.77
2023-01-12T10:48:08.635Z,70.17
2023-01-12T10:51:51.711Z,70.20
2023-01-12T11:03:44.705Z,69.80
2023-01-12T11:21:13.562Z,70.37
2023-01-12T11:25:31.815Z,69.73
2023-01-12T11:30:02.223Z,69.70
2023-01-12T11:38:23.776Z,68.73
2023-01-12T11:42:13.436Z,69.28
2023-01-12T11:45:53.040Z,68.70
2023-01-12T11:49:40.401Z,67.31
2023-01-12T11:52:46.192Z,64.79
2023-01-12T11:56:08.791Z,62.74
2023-01-12T11:59:20.922Z,60.26
2023-01-12T12:02:26.936Z,60.92
2023-01-12T12:06:05.995Z,61.10
2023-01-12T12:10:21.453Z,61.65
2023-01-12T12:14:29.040Z,60.85
2023-01-12T12:22:29.354Z,60.70
2023-01-12T12:26:45.602Z,61.40
2023-01-12T12:31:09.255Z,62.93
2023-01-12T12:35:24.791Z,63.15
2023-01-12T12:43:23.683Z,61.45
2023-01-12T12:46:42.019Z,61.10
2023-01-12T12:50:21.233Z,60.76
2023-01-12T13:03:52.629Z,61.75
2023-01-12T13:12:02.438Z,61.53
2023-01-12T13:16:19.278Z,62.78
2023-01-12T13:20:36.195Z,63.49
2023-01-12T13:24:44.396Z,63.91
2023-01-12T13:29:02.089Z,63.32
2023-01-12T13:33:16.394Z,61.14
2023-01-12T13:37:15.253Z,58.68
2023-01-12T13:41:16.996Z,60.76
2023-01-12T13:45:33.497Z,63.69
2023-01-12T13:49:22.245Z,62.90
2023-01-12T13:54:00.370Z,62.31
2023-01-12T13:57:57.275Z,57.18
2023-01-12T14:09:54.800Z,64.03
2023-01-12T14:14:20.254Z,61.99
2023-01-12T14:22:02.855Z,61.68
2023-01-12T14:25:50.528Z,64.74
2023-01-12T14:30:00.295Z,61.85
2023-01-12T14:34:13.147Z,61.22
2023-01-12T14:45:55.176Z,63.18
2023-01-12T14:49:55.965Z,61.81
2023-01-12T15:02:23.032Z,60.55
2023-01-12T15:06:30.124Z,60.56
2023-01-12T15:10:31.322Z,60.94
2023-01-12T15:22:07.922Z,60.90
2023-01-12T15:25:46.666Z,65.93
2023-01-12T15:33:09.989Z,64.66
2023-01-12T15:37:29.127Z,64.64
2023-01-12T15:41:37.836Z,66.37
2023-01-12T15:46:06.223Z,65.85
2023-01-12T15:50:02.862Z,62.63
2023-01-12T15:53:58.440Z,58.62
2023-01-12T15:58:24.194Z,61.02
2023-01-12T16:02:28.712Z,64.88
2023-01-12T16:17:26.596Z,63.34
2023-01-12T16:29:12.141Z,62.17
2023-01-12T16:32:55.703Z,61.36
2023-01-12T16:37:14.794Z,61.93
2023-01-12T16:40:18.941Z,63.15
2023-01-12T16:43:24.462Z,64.41
2023-01-12T16:46:28.152Z,65.66
2023-01-12T16:49:37.088Z,66.38
2023-01-12T16:52:44.373Z,67.28
2023-01-12T16:56:11.258Z,68.28
2023-01-12T16:59:17.072Z,68.95
2023-01-12T17:02:22.537Z,69.22
2023-01-12T17:05:28.179Z,69.56
2023-01-12T17:08:31.437Z,70.05
2023-01-12T17:11:56.255Z,70.66
2023-01-12T17:15:33.698Z,70.33
2023-01-12T17:18:58.148Z,69.91
2023-01-12T17:22:02.618Z,69.73
2023-01-12T17:25:06.382Z,69.58
2023-01-12T17:28:09.528Z,69.62
2023-01-12T17:31:18.259Z,69.83
2023-01-12T17:34:22.030Z,69.86
2023-01-12T17:37:25.240Z,70.25
2023-01-12T17:40:29.136Z,70.39
2023-01-12T17:43:32.411Z,70.73
2023-01-12T17:46:35.843Z,71.03
2023-01-12T17:50:14.697Z,70.25
2023-01-12T17:54:23.339Z,70.10
2023-01-12T17:58:32.271Z,70.70
2023-01-12T18:02:18.733Z,71.55
2023-01-12T18:05:39.687Z,71.74
2023-01-12T18:09:55.651Z,71.73
2023-01-12T18:13:54.630Z,71.85
2023-01-12T18:17:41.592Z,72.40
2023-01-12T18:21:39.601Z,71.79
2023-01-12T18:25:03.020Z,71.62
2023-01-12T18:28:30.591Z,69.15
2023-01-12T18:32:17.636Z,65.82
2023-01-12T18:36:14.675Z,64.38
2023-01-12T18:40:13.589Z,62.67
2023-01-12T18:44:03.654Z,62.06
2023-01-12T18:48:06.754Z,62.24
2023-01-12T18:52:00.321Z,62.78
2023-01-12T18:55:50.601Z,62.31
2023-01-12T18:59:36.548Z,62.44
2023-01-12T19:03:44.732Z,62.73
2023-01-12T19:07:40.550Z,62.53
2023-01-12T19:11:12.679Z,61.52
2023-01-12T19:14:34.185Z,61.98
2023-01-12T19:18:09.076Z,62.87
2023-01-12T19:21:45.575Z,62.48
2023-01-12T19:25:24.903Z,63.46
2023-01-12T19:28:40.758Z,63.24
2023-01-12T19:32:18.494Z,62.98
2023-01-12T19:35:22.086Z,63.94
2023-01-12T19:39:18.528Z,64.46
2023-01-12T19:43:15.299Z,66.13
2023-01-12T19:46:41.546Z,65.94
2023-01-12T19:50:28.639Z,65.78
2023-01-12T19:54:12.346Z,66.11
2023-01-12T19:57:27.625Z,65.41
2023-01-12T20:02:02.054Z,65.39
2023-01-12T20:06:21.222Z,64.73
2023-01-12T20:10:05.725Z,65.04
2023-01-12T20:13:48.609Z,65.08
2023-01-12T20:18:08.974Z,65.05
2023-01-12T20:21:50.464Z,64.71
2023-01-12T20:26:07.284Z,64.94
2023-01-12T20:30:04.297Z,65.38
2023-01-12T20:34:13.514Z,65.66
2023-01-12T20:38:22.110Z,66.08
2023-01-12T20:42:34.124Z,63.44
2023-01-12T20:46:33.658Z,61.76
2023-01-12T20:50:30.194Z,61.42
2023-01-12T20:54:39.217Z,59.66
2023-01-12T20:58:38.465Z,61.68
2023-01-12T21:02:35.229Z,65.28
2023-01-12T21:06:44.214Z,65.93
2023-01-12T21:10:53.130Z,66.12
2023-01-12T21:15:02.149Z,66.30
2023-01-12T21:19:10.870Z,66.32
2023-01-12T21:23:08.036Z,66.58
2023-01-12T21:26:51.184Z,67.55
2023-01-12T21:30:59.891Z,68.25
2023-01-12T21:35:09.057Z,64.87
2023-01-12T21:39:09.076Z,62.29
2023-01-12T21:43:18.006Z,62.14
2023-01-12T21:46:54.407Z,62.74
2023-01-12T21:50:51.030Z,62.11
2023-01-12T21:55:05.038Z,63.75
2023-01-12T22:01:22.721Z,66.02
2023-01-12T22:05:37.792Z,67.33
2023-01-12T22:09:54.513Z,68.74
2023-01-12T22:18:34.762Z,69.47
2023-01-12T22:22:52.504Z,69.56
2023-01-12T22:31:35.808Z,69.27
2023-01-12T22:40:45.003Z,69.63
2023-01-12T22:44:52.196Z,69.86
2023-01-12T22:49:09.692Z,70.08
2023-01-12T22:53:27.973Z,69.91
2023-01-12T22:57:58.036Z,70.49
2023-01-12T23:02:07.636Z,70.76
2023-01-12T23:06:27.195Z,65.77
2023-01-12T23:10:27.171Z,64.87
2023-01-12T23:14:17.216Z,61.74
2023-01-12T23:18:17.147Z,59.74
2023-01-12T23:23:45.459Z,63.74
2023-01-12T23:28:13.670Z,64.74
2023-01-12T23:33:01.896Z,66.41
2023-01-12T23:37:19.019Z,68.12
2023-01-12T23:45:43.594Z,69.33
2023-01-12T23:54:28.364Z,70.03
